This is the latest recevied weather packets stored in our database for station/object EA7AZH-5. If no packets are shown the sender has not sent any weather packets the latest 10 day(s).
| Time | Temp. | Humidity | Pressure | Rain* | Wind** | Luminosity | Snow |
|---|---|---|---|---|---|---|---|
| 1777763623 | 22.78° C | 56% | 1015.7 hPa | - | - | - | - |
| 1777759423 | 22.78° C | 57% | 1016.1 hPa | - | - | - | - |
| 1777757028 | 22.22° C | 58% | 1016.2 hPa | - | - | - | - |
| 1777755223 | 21.67° C | 60% | 1016.1 hPa | - | - | - | - |
| 1777750423 | 21.67° C | 61% | 1015.1 hPa | - | - | - | - |
| 1777745628 | 22.78° C | 58% | 1015.2 hPa | - | - | - | - |
| 1777740822 | 23.89° C | 55% | 1015.3 hPa | - | - | - | - |
| 1777718026 | 22.22° C | 61% | 1018.3 hPa | - | - | - | - |
| 1777714421 | 21.67° C | 65% | 1018.3 hPa | - | - | - | - |
| 1777712621 | 21.11° C | 66% | 1018.2 hPa | - | - | - | - |
| 1777711421 | 21.67° C | 63% | 1018.1 hPa | - | - | - | - |
| 1777709021 | 21.67° C | 64% | 1018 hPa | - | - | - | - |
| 1777705421 | 20.56° C | 70% | 1017.8 hPa | - | - | - | - |
| 1777703021 | 20.56° C | 69% | 1018 hPa | - | - | - | - |
| 1777700626 | 21.11° C | 67% | 1017.6 hPa | - | - | - | - |
| 1777698220 | 20.56° C | 68% | 1017.3 hPa | - | - | - | - |
| 1777693420 | 21.11° C | 68% | 1017.7 hPa | - | - | - | - |
| 1777689820 | 21.67° C | 65% | 1018.2 hPa | - | - | - | - |
| 1777685620 | 22.22° C | 65% | 1018.7 hPa | - | - | - | - |
| 1777685020 | 22.22° C | 68% | 1018.7 hPa | - | - | - | - |
| 1777680820 | 22.22° C | 64% | 1019.7 hPa | - | - | - | - |
| 1777680220 | 21.11° C | 69% | 1019.7 hPa | - | - | - | - |
| 1777677820 | 22.78° C | 64% | 1019.8 hPa | - | - | - | - |
| 1777676620 | 21.67° C | 69% | 1019.8 hPa | - | - | - | - |
| 1777676019 | 21.67° C | 68% | 1019.9 hPa | - | - | - | - |
* Rain since midnight (hover to see other rain measurements)
** Current wind speed in m/s (hover to see current wind gust speed)